Time;durP1;ratioP1;P1;durP2;ratioP2;P2;SDS_P1;SDS_P2;PMS_P1;PMS_P2;Temp;Humidity;BMP_temperature;BMP_pressure;BME280_temperature;BME280_humidity;BME280_pressure;Samples;Min_cycle;Max_cycle;Signal;HPM_P1;HPM_P2
2021/07/06 00:02:00;;;;;;;30.80;17.98;;;;;;;18.59;100.00;98813.47;1709439;82;21026;-62
2021/07/06 00:04:27;;;;;;;25.60;15.25;;;;;;;18.57;100.00;98808.38;1687873;83;21561;-62
2021/07/06 00:06:54;;;;;;;17.17;11.35;;;;;;;18.56;100.00;98810.05;1709589;83;21031;-62
2021/07/06 00:09:32;;;;;;;16.37;11.28;;;;;;;18.56;100.00;98810.05;1713321;82;20978;-61
2021/07/06 00:12:00;;;;;;;16.37;12.25;;;;;;;18.57;100.00;98812.45;1687209;83;21470;-62
2021/07/06 00:14:28;;;;;;;18.17;10.75;;;;;;;18.60;100.00;98813.16;1696739;83;21351;-64
2021/07/06 00:16:56;;;;;;;15.25;9.45;;;;;;;18.57;100.00;98815.17;1708684;82;20899;-64
2021/07/06 00:19:22;;;;;;;15.13;9.58;;;;;;;18.55;100.00;98811.97;1703909;82;21037;-64
2021/07/06 00:21:49;;;;;;;11.40;9.18;;;;;;;18.56;100.00;98818.20;1692081;82;20984;-62
2021/07/06 00:24:16;;;;;;;12.88;9.63;;;;;;;18.52;100.00;98822.14;1699039;82;21128;-63
2021/07/06 00:26:43;;;;;;;9.13;8.23;;;;;;;18.50;100.00;98826.30;1692088;82;20961;-65
2021/07/06 00:29:10;;;;;;;9.80;7.85;;;;;;;18.47;100.00;98825.03;1694330;83;20952;-63
2021/07/06 00:31:37;;;;;;;11.50;9.33;;;;;;;18.45;100.00;98829.98;1695260;82;20901;-64
2021/07/06 00:34:04;;;;;;;11.22;8.88;;;;;;;18.42;100.00;98826.00;1710345;82;21352;-64
2021/07/06 00:36:31;;;;;;;14.58;9.15;;;;;;;18.38;100.00;98824.25;1691837;82;21067;-63
2021/07/06 00:38:58;;;;;;;15.75;9.43;;;;;;;18.36;100.00;98823.77;1702363;82;20918;-63
2021/07/06 00:41:29;;;;;;;14.23;10.53;;;;;;;18.35;100.00;98829.77;1695869;82;20897;-64
2021/07/06 00:43:57;;;;;;;20.20;12.40;;;;;;;18.36;100.00;98833.27;1694032;82;21026;-64
2021/07/06 00:46:23;;;;;;;21.45;14.33;;;;;;;18.33;100.00;98831.21;1696365;82;21063;-64
2021/07/06 00:48:51;;;;;;;24.18;16.52;;;;;;;18.31;100.00;98830.16;1683705;83;21115;-64
2021/07/06 00:51:18;;;;;;;25.00;16.73;;;;;;;18.31;100.00;98834.23;1681804;83;22485;-64
2021/07/06 00:53:45;;;;;;;32.30;19.37;;;;;;;18.30;100.00;98838.62;1688191;83;21400;-64
2021/07/06 00:56:12;;;;;;;32.95;20.92;;;;;;;18.26;100.00;98838.48;1691345;83;20903;-64
2021/07/06 00:58:39;;;;;;;34.95;21.55;;;;;;;18.21;100.00;98832.66;1676581;83;20922;-62
2021/07/06 01:01:06;;;;;;;37.95;23.62;;;;;;;18.20;100.00;98837.04;1693613;83;21127;-63
2021/07/06 01:03:33;;;;;;;50.98;28.75;;;;;;;18.16;100.00;98838.26;1704594;81;20984;-62
2021/07/06 01:06:00;;;;;;;54.07;28.73;;;;;;;18.12;100.00;98835.94;1698461;82;21085;-62
2021/07/06 01:08:28;;;;;;;49.18;27.90;;;;;;;18.10;100.00;98839.53;1700785;82;21380;-64
2021/07/06 01:10:55;;;;;;;42.03;23.40;;;;;;;18.08;100.00;98839.61;1691053;83;21421;-64
2021/07/06 01:13:22;;;;;;;45.00;24.80;;;;;;;18.06;100.00;98837.80;1696365;83;21113;-64
2021/07/06 01:15:49;;;;;;;48.10;26.10;;;;;;;18.06;100.00;98835.87;1692579;83;20869;-63
2021/07/06 01:18:17;;;;;;;48.90;26.10;;;;;;;18.06;100.00;98839.16;1695803;83;21028;-64
2021/07/06 01:20:53;;;;;;;45.10;25.75;;;;;;;18.03;100.00;98839.23;1683617;82;20956;-64
2021/07/06 01:23:21;;;;;;;34.18;22.85;;;;;;;18.04;100.00;98841.39;1685181;82;20878;-62
2021/07/06 01:25:53;;;;;;;45.75;25.95;;;;;;;18.07;100.00;98844.81;1689663;83;21076;-63
2021/07/06 01:28:19;;;;;;;44.55;28.15;;;;;;;18.08;100.00;98840.43;1708883;82;21100;-64
2021/07/06 01:30:46;;;;;;;63.75;32.38;;;;;;;18.08;100.00;98843.15;1694672;82;21074;-63
2021/07/06 01:33:22;;;;;;;66.55;32.05;;;;;;;18.07;100.00;98843.45;1700210;83;20994;-64
2021/07/06 01:35:52;;;;;;;65.40;33.28;;;;;;;18.08;100.00;98851.30;1705221;81;20889;-63
2021/07/06 01:38:19;;;;;;;59.63;32.05;;;;;;;18.08;100.00;98854.01;1683572;83;21132;-62
2021/07/06 01:40:45;;;;;;;55.30;29.92;;;;;;;18.09;100.00;98862.95;1693800;83;20921;-64
2021/07/06 01:43:14;;;;;;;36.33;22.48;;;;;;;18.08;100.00;98862.16;1689901;83;21138;-63
2021/07/06 01:45:41;;;;;;;;;;;;;;;18.08;100.00;98866.23;1693316;81;20965;-63
2021/07/06 01:48:08;;;;;;;36.35;19.85;;;;;;;18.09;100.00;98864.30;1686796;82;20119;-63
2021/07/06 01:50:42;;;;;;;29.82;19.00;;;;;;;18.07;100.00;98870.05;1703228;82;22258;-63
2021/07/06 01:53:14;;;;;;;26.60;15.75;;;;;;;18.05;100.00;98868.20;1684995;83;20925;-62
2021/07/06 01:55:44;;;;;;;21.93;14.38;;;;;;;18.04;100.00;98871.26;1704741;82;20976;-64
2021/07/06 01:58:12;;;;;;;20.32;15.18;;;;;;;18.02;100.00;98866.14;1704287;82;21548;-63
2021/07/06 02:00:43;;;;;;;30.10;15.78;;;;;;;18.03;100.00;98869.64;1696573;82;20842;-63
2021/07/06 02:03:10;;;;;;;29.90;19.92;;;;;;;18.05;100.00;98868.20;1680461;82;21444;-62
2021/07/06 02:05:43;;;;;;;27.32;18.37;;;;;;;18.07;100.00;98869.25;1684195;83;20899;-63
2021/07/06 02:08:12;;;;;;;34.15;20.97;;;;;;;18.09;100.00;98874.60;1692753;82;20926;-63
2021/07/06 02:10:39;;;;;;;41.55;22.35;;;;;;;18.07;100.00;98875.48;1700601;82;21016;-63
2021/07/06 02:13:17;;;;;;;40.45;23.87;;;;;;;18.08;100.00;98870.84;1698210;82;20993;-62
2021/07/06 02:15:46;;;;;;;40.73;25.55;;;;;;;18.11;100.00;98870.22;1702207;82;20878;-63
2021/07/06 02:18:17;;;;;;;49.83;29.15;;;;;;;18.15;100.00;98867.91;1687877;83;20937;-63
2021/07/06 02:20:43;;;;;;;56.25;30.30;;;;;;;18.19;100.00;98871.56;1700459;83;21025;-62
2021/07/06 02:23:10;;;;;;;55.05;31.40;;;;;;;18.25;100.00;98883.61;1692932;82;21497;-62
2021/07/06 02:25:37;;;;;;;57.53;32.58;;;;;;;18.30;100.00;98887.52;1691290;83;21562;-63
2021/07/06 02:28:04;;;;;;;63.98;33.40;;;;;;;18.34;100.00;98885.77;1695858;82;21123;-62
2021/07/06 02:30:30;;;;;;;60.43;32.40;;;;;;;18.38;100.00;98888.09;1698667;82;20878;-63
2021/07/06 02:32:57;;;;;;;56.20;29.57;;;;;;;18.41;100.00;98894.23;1697827;82;20997;-62
2021/07/06 02:35:26;;;;;;;55.00;27.32;;;;;;;18.44;100.00;98886.79;1702751;82;20928;-61
2021/07/06 02:37:52;;;;;;;41.80;21.23;;;;;;;18.48;100.00;98894.55;1714349;82;21080;-63
2021/07/06 02:40:19;;;;;;;32.73;18.92;;;;;;;18.50;100.00;98894.23;1700896;82;21416;-64
2021/07/06 02:42:46;;;;;;;27.85;17.15;;;;;;;18.52;100.00;98899.59;1712014;82;20918;-64
2021/07/06 02:45:15;;;;;;;34.75;18.80;;;;;;;18.56;100.00;98902.45;1700461;82;20929;-64
2021/07/06 02:47:43;;;;;;;29.57;17.45;;;;;;;18.56;100.00;98900.52;1688773;83;21510;-64
2021/07/06 02:50:11;;;;;;;27.87;15.85;;;;;;;18.59;100.00;98903.15;1681628;82;20948;-65
2021/07/06 02:52:38;;;;;;;18.87;12.88;;;;;;;18.60;100.00;98902.05;1684398;82;21640;-65
2021/07/06 02:55:06;;;;;;;15.23;12.00;;;;;;;18.60;100.00;98906.91;1690630;82;20921;-63
2021/07/06 02:57:36;;;;;;;13.00;10.13;;;;;;;18.58;100.00;98909.16;1690244;82;20878;-64
2021/07/06 03:00:12;;;;;;;16.30;12.53;;;;;;;18.56;100.00;98904.59;1683640;83;20960;-63
2021/07/06 03:02:41;;;;;;;10.55;8.80;;;;;;;18.57;100.00;98908.92;1688818;83;21576;-65
2021/07/06 03:05:09;;;;;;;;;;;;;;;18.58;100.00;98920.02;1687202;82;21089;-62
2021/07/06 03:07:36;;;;;;;11.05;8.75;;;;;;;18.61;100.00;98924.81;1702363;82;20422;-63
2021/07/06 03:10:09;;;;;;;22.52;9.65;;;;;;;18.62;100.00;98929.14;1691978;83;20920;-63
2021/07/06 03:12:37;;;;;;;18.85;10.13;;;;;;;18.65;100.00;98927.70;1715523;82;20954;-64
2021/07/06 03:15:06;;;;;;;13.28;9.65;;;;;;;18.66;100.00;98932.00;1681409;82;21115;-63
2021/07/06 03:17:33;;;;;;;16.02;9.23;;;;;;;18.67;100.00;98926.81;1696655;83;21120;-64
2021/07/06 03:20:03;;;;;;;11.28;9.48;;;;;;;18.69;100.00;98927.84;1695255;83;21038;-63
2021/07/06 03:22:29;;;;;;;12.25;9.95;;;;;;;18.72;100.00;98929.36;1694461;82;20916;-63
2021/07/06 03:24:56;;;;;;;13.98;9.23;;;;;;;18.77;100.00;98927.86;1689759;83;21418;-63
2021/07/06 03:27:25;;;;;;;15.28;10.35;;;;;;;18.82;100.00;98933.13;1696789;83;21387;-64
2021/07/06 03:29:52;;;;;;;14.33;9.73;;;;;;;18.88;100.00;98935.10;1718236;81;21003;-63
2021/07/06 03:32:19;;;;;;;10.48;9.35;;;;;;;18.93;100.00;98940.93;1695817;82;20994;-63
2021/07/06 03:34:46;;;;;;;13.15;9.60;;;;;;;18.96;100.00;98942.45;1693986;82;21111;-63
2021/07/06 03:37:12;;;;;;;10.28;9.15;;;;;;;19.00;100.00;98943.95;1695709;82;21447;-64
2021/07/06 03:39:41;;;;;;;10.60;9.50;;;;;;;19.02;100.00;98945.80;1716281;82;20994;-63
2021/07/06 03:42:09;;;;;;;21.23;9.30;;;;;;;19.02;100.00;98941.71;1714076;82;21075;-64
2021/07/06 03:44:36;;;;;;;20.52;10.90;;;;;;;19.03;100.00;98941.94;1711518;81;21057;-64
2021/07/06 03:47:04;;;;;;;12.03;9.28;;;;;;;19.04;100.00;98946.27;1683532;83;20919;-63
2021/07/06 03:49:32;;;;;;;11.40;8.95;;;;;;;19.04;100.00;98941.63;1686620;83;21025;-64
2021/07/06 03:51:59;;;;;;;10.03;8.68;;;;;;;19.03;100.00;98944.66;1686203;83;21399;-63
2021/07/06 03:54:26;;;;;;;12.00;8.80;;;;;;;19.04;100.00;98944.91;1700227;83;21078;-63
2021/07/06 03:56:53;;;;;;;14.50;9.13;;;;;;;19.00;100.00;98950.19;1690593;83;20944;-65
2021/07/06 03:59:21;;;;;;;;;;;;;;;18.99;100.00;98952.68;1689286;83;21025;-63
2021/07/06 04:01:50;;;;;;;14.00;9.85;;;;;;;18.98;100.00;98949.70;1696647;83;20186;-64
2021/07/06 04:04:16;;;;;;;14.23;10.03;;;;;;;18.99;100.00;98954.61;1699884;82;21068;-63
2021/07/06 04:06:43;;;;;;;10.25;9.10;;;;;;;19.01;100.00;98950.44;1683428;83;21460;-64
2021/07/06 04:09:09;;;;;;;11.55;9.28;;;;;;;19.04;100.00;98953.86;1695715;82;21016;-62
2021/07/06 04:11:36;;;;;;;13.90;10.50;;;;;;;19.08;100.00;98949.13;1704800;82;20887;-64
2021/07/06 04:14:04;;;;;;;11.10;9.58;;;;;;;19.12;100.00;98951.45;1699106;82;20942;-64
2021/07/06 04:16:30;;;;;;;10.35;9.30;;;;;;;19.19;100.00;98944.94;1691477;82;20943;-63
2021/07/06 04:18:57;;;;;;;9.60;8.45;;;;;;;19.37;100.00;98952.47;1691140;83;21700;-64
2021/07/06 04:21:24;;;;;;;12.98;9.40;;;;;;;19.63;100.00;98946.91;1695688;82;20859;-64
2021/07/06 04:23:50;;;;;;;9.65;8.63;;;;;;;19.96;100.00;98952.49;1699913;81;21428;-62
2021/07/06 04:26:16;;;;;;;12.80;8.63;;;;;;;20.16;100.00;98955.56;1705364;82;21017;-64
2021/07/06 04:28:43;;;;;;;12.40;9.38;;;;;;;20.24;100.00;98957.45;1696294;81;20928;-63
2021/07/06 04:31:09;;;;;;;13.80;8.73;;;;;;;20.42;100.00;98966.27;1693104;83;23332;-63
2021/07/06 04:33:36;;;;;;;10.90;8.70;;;;;;;20.57;100.00;98966.25;1694590;83;21551;-62
2021/07/06 04:36:03;;;;;;;12.15;7.92;;;;;;;20.70;100.00;98969.25;1708216;82;21096;-62
2021/07/06 04:38:29;;;;;;;12.50;8.50;;;;;;;20.91;100.00;98959.67;1702621;82;21105;-63
2021/07/06 04:40:56;;;;;;;8.10;7.30;;;;;;;21.13;100.00;98966.08;1712946;82;20964;-62
2021/07/06 04:43:22;;;;;;;13.80;7.80;;;;;;;21.29;100.00;98968.97;1722097;82;21075;-63
2021/07/06 04:45:49;;;;;;;14.83;8.20;;;;;;;21.38;100.00;98975.67;1712752;82;21066;-63
2021/07/06 04:48:15;;;;;;;11.60;7.58;;;;;;;21.38;100.00;98979.19;1702990;82;21386;-63
2021/07/06 04:50:42;;;;;;;9.58;7.87;;;;;;;21.39;100.00;98982.77;1723360;82;20987;-64
2021/07/06 04:53:09;;;;;;;11.25;7.40;;;;;;;21.37;100.00;98976.25;1724607;82;20949;-63
2021/07/06 04:55:37;;;;;;;8.93;7.50;;;;;;;21.46;100.00;98973.45;1723137;81;21169;-61
2021/07/06 04:58:04;;;;;;;9.18;7.00;;;;;;;21.61;100.00;98973.34;1728183;82;20956;-61
2021/07/06 05:00:30;;;;;;;11.55;6.75;;;;;;;21.86;100.00;98974.70;1708711;82;20948;-63
2021/07/06 05:02:57;;;;;;;9.88;7.20;;;;;;;22.09;100.00;98979.09;1708558;82;21327;-63
2021/07/06 05:05:26;;;;;;;12.10;7.17;;;;;;;22.20;100.00;98976.16;1715509;82;21006;-62
2021/07/06 05:07:55;;;;;;;10.10;7.00;;;;;;;22.48;100.00;98974.81;1700452;82;21036;-64
2021/07/06 05:10:22;;;;;;;8.58;6.87;;;;;;;22.74;100.00;98975.74;1703182;82;21018;-64
2021/07/06 05:12:48;;;;;;;11.48;6.97;;;;;;;22.88;100.00;98980.79;1721613;82;20996;-65
2021/07/06 05:15:15;;;;;;;7.83;6.67;;;;;;;23.04;100.00;98980.28;1715532;82;20908;-64
2021/07/06 05:17:42;;;;;;;7.10;6.40;;;;;;;23.09;100.00;98982.77;1710787;82;20995;-64
2021/07/06 05:20:10;;;;;;;7.75;6.42;;;;;;;23.06;100.00;98984.84;1729938;82;21082;-63
2021/07/06 05:22:38;;;;;;;9.68;6.95;;;;;;;23.17;100.00;98982.95;1716042;82;21417;-64
2021/07/06 05:25:07;;;;;;;7.83;7.03;;;;;;;23.23;100.00;98980.98;1714347;82;20849;-64
2021/07/06 05:27:33;;;;;;;9.58;8.13;;;;;;;23.23;100.00;98982.35;1718887;82;20996;-63
2021/07/06 05:30:00;;;;;;;9.93;6.80;;;;;;;23.38;100.00;98983.50;1713003;82;21469;-63
2021/07/06 05:32:26;;;;;;;7.15;6.47;;;;;;;23.54;100.00;98987.05;1710594;82;21082;-64
2021/07/06 05:34:53;;;;;;;9.78;6.75;;;;;;;23.75;100.00;98993.63;1714722;82;21110;-64
2021/07/06 05:37:19;;;;;;;10.20;6.17;;;;;;;23.98;100.00;98996.29;1723254;81;21060;-64
2021/07/06 05:39:45;;;;;;;11.12;7.00;;;;;;;23.95;100.00;98998.59;1693409;82;21111;-64
2021/07/06 05:42:12;;;;;;;7.17;6.47;;;;;;;23.91;100.00;98997.73;1690634;83;21025;-64
2021/07/06 05:44:39;;;;;;;14.75;7.42;;;;;;;24.18;100.00;99000.09;1698223;83;21122;-63
2021/07/06 05:47:07;;;;;;;8.60;7.30;;;;;;;24.18;100.00;99000.09;1691799;83;20893;-64
2021/07/06 05:49:34;;;;;;;8.73;6.80;;;;;;;24.35;100.00;99007.68;1710729;83;21086;-65
2021/07/06 05:52:00;;;;;;;9.48;7.05;;;;;;;24.62;100.00;99005.95;1692315;83;21085;-64
2021/07/06 05:54:26;;;;;;;7.17;6.47;;;;;;;24.80;100.00;99000.22;1675660;83;21045;-64
2021/07/06 05:56:53;;;;;;;13.43;7.20;;;;;;;24.90;100.00;99005.70;1689537;83;21116;-64
2021/07/06 05:59:19;;;;;;;14.20;7.25;;;;;;;24.67;100.00;99011.15;1684625;83;20985;-63
2021/07/06 06:01:46;;;;;;;8.85;6.80;;;;;;;24.75;100.00;99015.61;1687117;83;20838;-63
2021/07/06 06:04:13;;;;;;;8.68;6.50;;;;;;;24.93;100.00;99017.91;1701963;82;21003;-62
2021/07/06 06:06:39;;;;;;;7.83;7.03;;;;;;;25.12;100.00;99015.14;1721743;82;21435;-64
2021/07/06 06:09:06;;;;;;;10.63;6.92;;;;;;;25.11;100.00;99015.48;1707984;82;21131;-64
2021/07/06 06:11:33;;;;;;;10.70;7.40;;;;;;;25.06;100.00;99019.33;1704037;83;21015;-63
2021/07/06 06:14:00;;;;;;;7.50;6.00;;;;;;;24.85;100.00;99017.56;1694151;83;21100;-64
2021/07/06 06:16:27;;;;;;;7.90;7.10;;;;;;;25.11;100.00;99021.80;1689375;83;21459;-64
2021/07/06 06:18:55;;;;;;;6.87;6.20;;;;;;;25.60;100.00;99016.18;1706256;83;20874;-65
2021/07/06 06:21:24;;;;;;;10.13;6.50;;;;;;;25.66;100.00;99016.89;1696024;83;21482;-65
2021/07/06 06:23:51;;;;;;;9.43;6.40;;;;;;;25.54;100.00;99020.41;1689038;83;20976;-64
2021/07/06 06:26:18;;;;;;;9.18;6.97;;;;;;;25.74;100.00;99015.63;1696001;83;21462;-64
2021/07/06 06:28:44;;;;;;;8.43;6.35;;;;;;;26.09;100.00;99019.52;1699938;82;20971;-63
2021/07/06 06:31:54;;;;;;;9.93;6.50;;;;;;;26.28;100.00;99024.91;1688656;83;20881;-61
2021/07/06 06:34:21;;;;;;;10.88;6.92;;;;;;;26.30;100.00;99026.70;1704603;83;21683;-65
2021/07/06 06:36:47;;;;;;;11.30;7.42;;;;;;;26.28;100.00;99024.91;1713107;83;20972;-64
2021/07/06 06:39:14;;;;;;;10.63;6.80;;;;;;;26.45;100.00;99026.31;1708980;82;21086;-64
2021/07/06 06:41:40;;;;;;;7.10;6.40;;;;;;;26.30;100.00;99021.20;1706029;82;21009;-63
2021/07/06 06:44:07;;;;;;;6.72;6.12;;;;;;;26.23;100.00;99021.10;1705475;83;21331;-65
2021/07/06 06:46:33;;;;;;;9.88;5.42;;;;;;;26.56;100.00;99032.59;1708855;82;21066;-64
2021/07/06 06:49:04;;;;;;;15.18;5.47;;;;;;;26.69;100.00;99023.70;1716944;83;37379;-65
2021/07/06 06:51:32;;;;;;;7.37;6.65;;;;;;;26.38;100.00;99024.84;1712476;82;20972;-65
2021/07/06 06:53:59;;;;;;;9.20;6.40;;;;;;;26.46;100.00;99025.16;1705896;83;21106;-65
2021/07/06 06:56:26;;;;;;;;;;;;;;;26.77;100.00;99030.67;1710173;83;21311;-63
2021/07/06 06:58:53;;;;;;;;;;;;;;;27.02;100.00;99029.58;1689918;83;21319;-63
2021/07/06 07:01:20;;;;;;;11.53;6.75;;;;;;;27.20;100.00;99029.81;1704571;83;20229;-66
2021/07/06 07:03:48;;;;;;;11.73;6.95;;;;;;;27.47;100.00;99027.70;1706536;83;21493;-65
2021/07/06 07:06:15;;;;;;;11.10;7.05;;;;;;;27.48;100.00;99029.28;1701722;82;21011;-66
2021/07/06 07:08:43;;;;;;;16.15;6.10;;;;;;;27.70;100.00;99034.39;1703941;83;20968;-67
2021/07/06 07:11:10;;;;;;;10.90;6.08;;;;;;;27.76;98.91;99032.28;1708149;83;21129;-65
2021/07/06 07:13:36;;;;;;;11.43;6.65;;;;;;;27.42;100.00;99029.44;1699578;83;20964;-66
2021/07/06 07:16:03;;;;;;;13.25;6.55;;;;;;;27.31;100.00;99034.83;1704969;83;21004;-66
2021/07/06 07:18:30;;;;;;;;;;;;;;;27.16;100.00;99032.48;1716024;83;20991;-63
2021/07/06 07:20:56;;;;;;;8.93;6.12;;;;;;;27.16;100.00;99035.23;1683652;83;20142;-65
2021/07/06 07:23:23;;;;;;;9.73;5.60;;;;;;;27.45;100.00;99032.21;1709933;83;21077;-65
2021/07/06 07:25:49;;;;;;;8.80;5.20;;;;;;;27.31;98.66;99032.06;1715359;82;20873;-66
2021/07/06 07:28:16;;;;;;;5.97;4.85;;;;;;;27.33;95.95;99033.87;1728753;82;21425;-65
2021/07/06 07:30:42;;;;;;;6.80;5.33;;;;;;;27.33;96.48;99038.00;1714215;82;20924;-66
2021/07/06 07:33:09;;;;;;;6.78;4.92;;;;;;;27.62;93.08;99032.16;1717244;82;21149;-66
2021/07/06 07:35:35;;;;;;;6.80;5.67;;;;;;;27.76;95.53;99025.39;1732667;82;21229;-65
2021/07/06 07:38:02;;;;;;;5.58;5.05;;;;;;;27.62;95.03;99031.38;1718692;81;21030;-67
2021/07/06 07:40:28;;;;;;;5.62;4.60;;;;;;;27.55;94.60;99035.64;1730226;80;20843;-67
2021/07/06 07:42:55;;;;;;;8.85;5.37;;;;;;;27.43;95.88;99031.79;1728252;82;21371;-65
2021/07/06 07:45:21;;;;;;;7.57;5.20;;;;;;;27.65;93.28;99033.36;1718839;82;20931;-65
2021/07/06 07:47:48;;;;;;;13.70;5.67;;;;;;;27.66;93.01;99030.80;1710676;82;21159;-65
2021/07/06 07:50:14;;;;;;;6.62;4.08;;;;;;;27.67;88.76;99036.53;1725413;82;20970;-66
2021/07/06 07:52:43;;;;;;;4.83;4.10;;;;;;;27.58;88.27;99032.14;1730849;81;20944;-63
2021/07/06 07:55:10;;;;;;;4.47;4.05;;;;;;;27.41;84.09;99038.85;1715933;83;20896;-65
2021/07/06 07:57:36;;;;;;;;;;;;;;;27.39;87.36;99035.13;1712172;82;20931;-65
2021/07/06 08:00:05;;;;;;;8.43;4.77;;;;;;;27.39;89.43;99037.06;1715957;82;21134;-63
2021/07/06 08:02:34;;;;;;;5.87;4.70;;;;;;;27.74;90.91;99039.35;1734783;82;21689;-64
2021/07/06 08:05:01;;;;;;;6.03;4.65;;;;;;;28.41;85.00;99040.41;1712437;82;21070;-66
2021/07/06 08:07:28;;;;;;;6.73;4.23;;;;;;;28.36;80.74;99035.86;1713040;82;20953;-67
2021/07/06 08:09:54;;;;;;;17.13;5.17;;;;;;;28.29;84.44;99028.91;1713072;82;20905;-67
2021/07/06 08:12:21;;;;;;;5.05;4.53;;;;;;;28.08;82.05;99035.11;1709924;82;21136;-68
2021/07/06 08:14:52;;;;;;;7.67;4.78;;;;;;;27.47;85.00;99034.00;1703745;83;21363;-65
2021/07/06 08:17:18;;;;;;;5.62;4.55;;;;;;;27.76;87.02;99034.25;1698851;83;21490;-65
2021/07/06 08:19:46;;;;;;;5.22;4.30;;;;;;;27.96;85.00;99035.61;1704531;82;21032;-64
2021/07/06 08:22:13;;;;;;;5.30;4.15;;;;;;;28.24;81.55;99030.66;1696569;83;21406;-66
2021/07/06 08:24:39;;;;;;;6.80;4.43;;;;;;;28.88;79.76;99039.26;1703578;83;21131;-64
2021/07/06 08:27:06;;;;;;;10.38;4.87;;;;;;;28.88;79.76;99039.26;1711654;83;21696;-67
2021/07/06 08:29:33;;;;;;;7.95;4.47;;;;;;;29.00;79.71;99029.23;1705491;83;21221;-64
2021/07/06 08:31:59;;;;;;;5.42;4.60;;;;;;;29.07;79.25;99042.31;1702074;83;20968;-65
2021/07/06 08:34:26;;;;;;;4.85;4.20;;;;;;;28.91;79.95;99039.06;1699771;82;21507;-65
2021/07/06 08:36:52;;;;;;;7.58;5.03;;;;;;;28.73;75.69;99039.80;1700888;82;21049;-65
2021/07/06 08:39:19;;;;;;;5.20;4.70;;;;;;;28.83;81.21;99045.98;1692111;82;20987;-65
2021/07/06 08:41:46;;;;;;;9.23;4.17;;;;;;;28.87;74.75;99049.34;1696488;83;20980;-63
2021/07/06 08:44:12;;;;;;;9.93;4.33;;;;;;;28.69;76.34;99043.72;1701541;82;21368;-64
2021/07/06 08:46:39;;;;;;;7.58;4.60;;;;;;;28.36;77.22;99044.12;1693868;83;21665;-65
2021/07/06 08:49:06;;;;;;;6.35;4.42;;;;;;;27.97;79.79;99045.45;1689737;83;21689;-63
2021/07/06 08:51:34;;;;;;;6.87;4.90;;;;;;;28.07;79.45;99048.68;1700516;82;20936;-64
2021/07/06 08:54:01;;;;;;;4.33;3.80;;;;;;;28.30;77.05;99040.95;1690595;82;21012;-65
2021/07/06 08:56:27;;;;;;;4.90;3.85;;;;;;;28.52;74.58;99053.53;1726621;82;20976;-64
2021/07/06 08:58:54;;;;;;;;;;;;;;;28.31;75.69;99052.78;1722276;82;21430;-64
2021/07/06 09:01:27;;;;;;;15.27;4.53;;;;;;;28.14;77.85;99051.48;1702141;82;21121;-65
2021/07/06 09:04:04;;;;;;;4.65;3.80;;;;;;;28.51;76.33;99050.55;1726758;82;21135;-65
2021/07/06 09:06:35;;;;;;;20.17;4.42;;;;;;;28.69;73.57;99033.49;1719599;82;20868;-64
2021/07/06 09:09:17;;;;;;;8.05;3.90;;;;;;;28.79;71.86;99048.52;1715632;82;20971;-65
2021/07/06 09:11:46;;;;;;;5.92;3.42;;;;;;;28.88;72.91;99045.38;1718438;82;21055;-63
2021/07/06 09:14:14;;;;;;;8.33;3.67;;;;;;;29.15;68.19;99054.95;1723066;82;21858;-62
2021/07/06 09:16:40;;;;;;;;;;;;;;;29.06;67.57;99052.58;1719889;82;20951;-63
2021/07/06 09:19:24;;;;;;;5.40;4.10;;;;;;;29.30;70.61;99048.08;1724572;82;20081;-63
2021/07/06 09:22:10;;;;;;;6.20;3.70;;;;;;;29.32;66.32;99050.65;1686968;83;21367;-63
2021/07/06 09:24:37;;;;;;;6.07;3.53;;;;;;;29.24;65.54;99054.00;1705138;82;20974;-63
2021/07/06 09:27:29;;;;;;;6.63;4.07;;;;;;;29.22;64.92;99050.05;1723026;82;21050;-62
2021/07/06 09:30:23;;;;;;;3.58;3.22;;;;;;;28.98;66.82;99044.05;1724730;82;21297;-63
2021/07/06 09:32:55;;;;;;;4.62;2.95;;;;;;;28.90;68.25;99056.83;1722483;82;21638;-64
2021/07/06 09:35:29;;;;;;;8.25;3.22;;;;;;;29.27;67.14;99057.35;1722370;82;20884;-64
2021/07/06 09:38:01;;;;;;;5.97;3.30;;;;;;;29.74;64.03;99058.81;1711755;82;20941;-64
2021/07/06 09:40:37;;;;;;;7.12;3.35;;;;;;;30.01;61.08;99074.44;1712522;83;22260;-65
2021/07/06 09:43:26;;;;;;;4.53;3.90;;;;;;;30.05;60.39;99065.52;1705954;82;21412;-63
2021/07/06 09:46:09;;;;;;;4.87;3.75;;;;;;;29.71;59.24;99062.38;1707488;82;21003;-62
2021/07/06 09:48:47;;;;;;;6.05;3.40;;;;;;;29.87;61.99;99065.55;1721881;82;21042;-62
2021/07/06 09:51:20;;;;;;;7.85;3.70;;;;;;;29.76;62.29;99063.95;1714276;82;21446;-63
2021/07/06 09:53:50;;;;;;;9.80;4.10;;;;;;;29.69;62.71;99068.89;1702697;82;21708;-64
2021/07/06 09:56:19;;;;;;;5.08;3.52;;;;;;;29.75;64.81;99063.17;1694425;83;21445;-63
2021/07/06 09:58:52;;;;;;;8.33;3.70;;;;;;;30.29;65.63;99062.55;1724110;82;20984;-64
2021/07/06 10:01:20;;;;;;;6.12;3.12;;;;;;;29.73;59.80;99067.52;1713375;82;20889;-64
2021/07/06 10:03:49;;;;;;;6.17;3.40;;;;;;;29.48;61.32;99062.14;1714110;82;21015;-63
2021/07/06 10:06:18;;;;;;;5.60;3.15;;;;;;;29.52;60.65;99071.02;1713966;83;21130;-62
2021/07/06 10:08:45;;;;;;;7.15;3.25;;;;;;;29.85;59.86;99075.42;1703810;82;21027;-62
2021/07/06 10:11:12;;;;;;;6.08;3.50;;;;;;;29.77;60.84;99072.47;1722338;82;20900;-62
2021/07/06 10:13:40;;;;;;;14.35;4.80;;;;;;;29.54;65.41;99070.83;1702810;82;20921;-63
2021/07/06 10:16:07;;;;;;;4.90;3.10;;;;;;;29.68;64.46;99072.25;1701359;83;21434;-63
2021/07/06 10:18:56;;;;;;;3.83;3.25;;;;;;;29.87;62.77;99065.55;1711473;83;21136;-62
2021/07/06 10:21:22;;;;;;;8.75;4.58;;;;;;;29.96;61.72;99066.52;1627221;86;21108;-63
2021/07/06 10:23:50;;;;;;;11.97;4.47;;;;;;;30.01;62.86;99066.14;1628967;87;21008;-63
2021/07/06 10:26:24;;;;;;;5.30;3.70;;;;;;;29.73;65.34;99067.52;1604137;87;21068;-64
2021/07/06 10:28:52;;;;;;;7.67;4.05;;;;;;;29.79;61.44;99072.84;1603861;88;21097;-64
2021/07/06 10:31:19;;;;;;;4.92;3.55;;;;;;;30.12;61.67;99071.05;1616144;86;23276;-64
2021/07/06 10:33:48;;;;;;;4.15;3.52;;;;;;;30.18;60.33;99067.28;1633466;85;21125;-64
2021/07/06 10:36:16;;;;;;;7.15;4.03;;;;;;;30.36;64.34;99078.37;1635420;86;20959;-64
2021/07/06 10:38:58;;;;;;;5.28;3.47;;;;;;;30.82;61.67;99075.24;1635984;86;21011;-63
2021/07/06 10:41:40;;;;;;;10.90;4.10;;;;;;;30.95;59.31;99078.59;1631630;86;21044;-67
2021/07/06 10:44:07;;;;;;;9.55;3.85;;;;;;;31.04;60.05;99071.81;1632426;86;21092;-65
2021/07/06 10:46:43;;;;;;;5.45;3.80;;;;;;;31.07;58.35;99069.63;1634765;86;20948;-62
2021/07/06 10:49:27;;;;;;;4.37;3.52;;;;;;;31.14;60.69;99080.69;1668988;85;21419;-64
2021/07/06 10:51:55;;;;;;;4.28;3.70;;;;;;;31.42;56.54;99077.58;1675031;83;21090;-63
2021/07/06 10:54:30;;;;;;;8.65;4.10;;;;;;;31.13;56.37;99086.02;1675333;83;21526;-64
2021/07/06 10:57:10;;;;;;;7.33;3.87;;;;;;;30.72;56.93;99086.55;1686120;83;21085;-62
2021/07/06 10:59:52;;;;;;;6.22;3.37;;;;;;;31.01;57.63;99087.27;1665167;83;21452;-65
2021/07/06 11:02:26;;;;;;;5.03;3.17;;;;;;;31.11;54.26;99093.95;1612608;86;21013;-63
2021/07/06 11:04:56;;;;;;;7.80;3.42;;;;;;;30.95;55.57;99091.05;1628783;87;21000;-64
2021/07/06 11:07:42;;;;;;;4.83;3.20;;;;;;;31.08;54.80;99091.98;1622727;87;20991;-63
2021/07/06 11:10:09;;;;;;;;;;;;;;;31.03;57.04;99084.88;1627751;87;21132;-63
2021/07/06 11:12:44;;;;;;;25.72;5.97;;;;;;;30.15;58.65;99083.30;1619461;88;20165;-63
2021/07/06 11:15:16;;;;;;;7.10;3.77;;;;;;;30.02;61.37;99083.52;1622678;88;21147;-64
2021/07/06 11:17:48;;;;;;;7.03;4.30;;;;;;;29.82;62.12;99096.97;1622330;88;21446;-63
2021/07/06 11:20:21;;;;;;;5.62;4.22;;;;;;;29.76;62.08;99093.00;1622060;88;20921;-62
2021/07/06 11:22:55;;;;;;;8.65;4.05;;;;;;;29.60;60.53;99085.85;1622078;87;21125;-63
2021/07/06 11:25:36;;;;;;;5.67;4.20;;;;;;;29.32;63.98;99093.48;1605246;87;20892;-64
2021/07/06 11:28:26;;;;;;;6.47;4.00;;;;;;;29.33;63.37;99102.00;1663439;85;21439;-65
2021/07/06 11:31:01;;;;;;;10.20;4.60;;;;;;;29.41;63.12;99104.97;1687369;83;21418;-65
2021/07/06 11:33:37;;;;;;;7.85;3.90;;;;;;;29.60;64.90;99098.30;1677519;83;21058;-63